createdAt,value
2022-12-25T00:00:16.681Z,0.80
2022-12-25T00:03:07.989Z,1.10
2022-12-25T00:05:39.750Z,0.40
2022-12-25T00:08:26.375Z,0.65
2022-12-25T00:11:16.046Z,0.90
2022-12-25T00:13:45.128Z,0.55
2022-12-25T00:16:24.731Z,0.82
2022-12-25T00:19:11.369Z,0.73
2022-12-25T00:21:39.754Z,0.75
2022-12-25T00:24:08.183Z,1.05
2022-12-25T00:26:36.454Z,0.80
2022-12-25T00:29:23.206Z,0.80
2022-12-25T00:31:51.612Z,0.75
2022-12-25T00:34:19.941Z,0.70
2022-12-25T00:36:51.434Z,0.70
2022-12-25T00:39:19.922Z,0.75
2022-12-25T00:42:06.774Z,0.80
2022-12-25T00:44:35.497Z,1.45
2022-12-25T00:47:04.370Z,0.70
2022-12-25T00:49:32.746Z,0.50
2022-12-25T00:52:19.308Z,1.00
2022-12-25T00:54:47.548Z,0.93
2022-12-25T00:57:34.494Z,0.82
2022-12-25T01:00:21.314Z,0.85
2022-12-25T01:03:07.932Z,1.25
2022-12-25T01:05:36.280Z,0.60
2022-12-25T01:08:04.872Z,1.00
2022-12-25T01:10:59.505Z,0.80
2022-12-25T01:13:31.951Z,1.00
2022-12-25T01:18:46.987Z,1.13
2022-12-25T01:21:35.972Z,1.10
2022-12-25T01:24:04.245Z,0.65
2022-12-25T01:26:51.325Z,0.73
2022-12-25T01:29:19.476Z,1.10
2022-12-25T01:31:47.969Z,0.77
2022-12-25T01:34:16.418Z,1.25
2022-12-25T01:36:44.566Z,1.40
2022-12-25T01:39:12.729Z,1.40
2022-12-25T01:41:40.971Z,1.83
2022-12-25T01:44:54.939Z,1.17
2022-12-25T01:47:41.863Z,0.90
2022-12-25T01:50:10.093Z,1.45
2022-12-25T01:52:38.532Z,1.23
2022-12-25T01:55:11.720Z,1.08
2022-12-25T01:57:41.064Z,1.20
2022-12-25T02:00:11.713Z,1.55
2022-12-25T02:02:42.402Z,1.35
2022-12-25T02:05:21.723Z,1.40
2022-12-25T02:08:10.425Z,1.30
2022-12-25T02:10:39.582Z,1.58
2022-12-25T02:13:08.584Z,1.40
2022-12-25T02:15:55.917Z,1.13
2022-12-25T02:22:20.474Z,0.98
2022-12-25T02:25:21.571Z,0.95
2022-12-25T02:27:52.708Z,1.02
2022-12-25T02:30:46.820Z,1.50
2022-12-25T02:34:04.854Z,1.10
2022-12-25T02:36:51.069Z,1.20
2022-12-25T02:40:00.789Z,1.05
2022-12-25T02:43:07.155Z,1.17
2022-12-25T02:46:17.904Z,1.25
2022-12-25T02:49:10.869Z,1.42
2022-12-25T02:52:03.142Z,2.03
2022-12-25T02:54:53.824Z,1.15
2022-12-25T02:57:44.007Z,1.30
2022-12-25T03:00:53.677Z,1.38
2022-12-25T03:03:44.244Z,1.13
2022-12-25T03:06:32.855Z,1.10
2022-12-25T03:09:44.529Z,1.02
2022-12-25T03:12:35.969Z,1.60
2022-12-25T03:15:42.001Z,1.05
2022-12-25T03:18:15.756Z,1.23
2022-12-25T03:21:02.669Z,1.13
2022-12-25T03:23:53.666Z,1.33
2022-12-25T03:26:40.938Z,0.80
2022-12-25T03:29:09.300Z,1.10
2022-12-25T03:31:46.691Z,1.02
2022-12-25T03:34:48.419Z,1.33
2022-12-25T03:37:40.998Z,1.40
2022-12-25T03:40:53.516Z,1.40
2022-12-25T03:44:06.981Z,0.93
2022-12-25T03:47:00.306Z,0.90
2022-12-25T03:49:56.260Z,1.10
2022-12-25T03:52:45.104Z,1.33
2022-12-25T03:55:33.392Z,1.55
2022-12-25T03:58:20.253Z,0.98
2022-12-25T04:01:07.203Z,1.25
2022-12-25T04:03:54.317Z,0.82
2022-12-25T04:06:41.328Z,1.60
2022-12-25T04:09:28.186Z,1.20
2022-12-25T04:12:33.933Z,1.20
2022-12-25T04:15:39.164Z,1.42
2022-12-25T04:21:29.787Z,1.65
2022-12-25T04:24:16.363Z,1.83
2022-12-25T04:27:03.361Z,2.42
2022-12-25T04:29:50.034Z,0.90
2022-12-25T04:32:38.981Z,1.10
2022-12-25T04:35:28.876Z,1.23
2022-12-25T04:37:57.644Z,1.38
2022-12-25T04:40:25.905Z,1.25
2022-12-25T04:42:54.209Z,1.90
2022-12-25T04:45:22.586Z,1.35
2022-12-25T04:47:51.078Z,1.58
2022-12-25T04:50:37.517Z,0.95
2022-12-25T04:53:05.613Z,1.50
2022-12-25T04:55:33.869Z,1.58
2022-12-25T04:58:02.931Z,1.50
2022-12-25T05:00:49.555Z,1.55
2022-12-25T05:03:17.979Z,1.35
2022-12-25T05:06:05.451Z,1.25
2022-12-25T05:08:35.052Z,1.85
2022-12-25T05:11:22.827Z,2.13
2022-12-25T05:13:51.184Z,1.20
2022-12-25T05:16:38.252Z,1.15
2022-12-25T05:19:25.348Z,1.40
2022-12-25T05:22:11.930Z,1.85
2022-12-25T05:24:40.168Z,3.08
2022-12-25T05:27:26.896Z,1.13
2022-12-25T05:29:55.179Z,1.58
2022-12-25T05:32:23.448Z,1.95
2022-12-25T05:34:51.701Z,1.42
2022-12-25T05:37:19.876Z,1.52
2022-12-25T05:39:47.871Z,1.90
2022-12-25T05:45:01.828Z,1.88
2022-12-25T05:47:30.645Z,1.60
2022-12-25T05:49:59.645Z,1.02
2022-12-25T05:52:34.910Z,1.13
2022-12-25T05:55:03.604Z,1.80
2022-12-25T05:57:32.474Z,1.67
2022-12-25T06:00:00.541Z,1.70
2022-12-25T06:02:28.886Z,1.60
2022-12-25T06:04:57.115Z,1.77
2022-12-25T06:07:25.327Z,1.65
2022-12-25T06:09:53.418Z,1.15
2022-12-25T06:12:21.573Z,1.70
2022-12-25T06:14:50.003Z,1.70
2022-12-25T06:17:18.173Z,2.08
2022-12-25T06:19:46.164Z,1.48
2022-12-25T06:22:14.274Z,1.63
2022-12-25T06:24:42.496Z,2.58
2022-12-25T06:27:10.620Z,1.60
2022-12-25T06:29:38.713Z,2.05
2022-12-25T06:34:52.516Z,1.80
2022-12-25T06:37:20.702Z,1.23
2022-12-25T06:39:49.571Z,1.50
2022-12-25T06:42:17.600Z,2.00
2022-12-25T06:44:45.773Z,1.95
2022-12-25T06:47:13.997Z,2.05
2022-12-25T06:49:42.097Z,1.02
2022-12-25T06:52:10.303Z,1.33
2022-12-25T06:54:38.446Z,2.63
2022-12-25T06:57:06.542Z,1.83
2022-12-25T06:59:34.609Z,1.67
2022-12-25T07:02:03.442Z,1.42
2022-12-25T07:04:41.163Z,1.40
2022-12-25T07:07:10.044Z,2.17
2022-12-25T07:09:42.738Z,1.25
2022-12-25T07:12:13.924Z,0.93
2022-12-25T07:14:42.232Z,1.70
2022-12-25T07:17:10.348Z,2.40
2022-12-25T07:19:44.439Z,1.42
2022-12-25T07:22:13.873Z,1.20
2022-12-25T07:24:42.029Z,1.60
2022-12-25T07:27:10.281Z,1.38
2022-12-25T07:29:38.386Z,1.95
2022-12-25T07:32:07.350Z,1.40
2022-12-25T07:34:54.232Z,1.90
2022-12-25T07:37:22.471Z,1.30
2022-12-25T07:39:50.773Z,1.20
2022-12-25T07:42:24.805Z,1.38
2022-12-25T07:44:55.489Z,1.40
2022-12-25T07:47:23.603Z,1.48
2022-12-25T07:49:51.639Z,1.70
2022-12-25T07:52:19.679Z,1.30
2022-12-25T07:54:47.811Z,1.30
2022-12-25T07:57:15.814Z,1.42
2022-12-25T07:59:43.838Z,1.33
2022-12-25T08:02:12.182Z,1.40
2022-12-25T08:04:40.496Z,1.38
2022-12-25T08:07:27.611Z,2.15
2022-12-25T08:09:55.737Z,1.50
2022-12-25T08:12:23.970Z,1.25
2022-12-25T08:14:52.172Z,1.35
2022-12-25T08:17:20.246Z,1.23
2022-12-25T08:19:48.459Z,1.40
2022-12-25T08:22:16.557Z,1.15
2022-12-25T08:24:44.787Z,2.05
2022-12-25T08:27:12.827Z,1.52
2022-12-25T08:29:40.922Z,1.60
2022-12-25T08:32:09.017Z,1.10
2022-12-25T08:34:38.893Z,1.13
2022-12-25T08:37:06.909Z,1.67
2022-12-25T08:39:35.136Z,2.03
2022-12-25T08:42:03.271Z,1.80
2022-12-25T08:44:31.473Z,1.20
2022-12-25T08:46:59.479Z,1.67
2022-12-25T08:49:29.388Z,1.75
2022-12-25T08:51:57.820Z,1.30
2022-12-25T08:54:46.616Z,2.20
2022-12-25T08:57:14.715Z,1.42
2022-12-25T08:59:42.669Z,1.80
2022-12-25T09:02:12.636Z,2.03
2022-12-25T09:04:40.876Z,1.58
2022-12-25T09:07:08.845Z,2.08
2022-12-25T09:09:37.406Z,1.70
2022-12-25T09:12:05.692Z,1.88
2022-12-25T09:14:33.858Z,1.88
2022-12-25T09:17:01.960Z,1.90
2022-12-25T09:19:30.119Z,2.00
2022-12-25T09:21:58.205Z,1.50
2022-12-25T09:24:26.426Z,2.45
2022-12-25T09:26:54.575Z,1.77
2022-12-25T09:29:22.655Z,1.80
2022-12-25T09:31:50.732Z,1.67
2022-12-25T09:34:19.443Z,2.20
2022-12-25T09:36:47.756Z,2.00
2022-12-25T09:39:15.824Z,1.73
2022-12-25T09:42:01.853Z,1.70
2022-12-25T09:45:06.017Z,2.13
2022-12-25T09:47:38.607Z,1.90
2022-12-25T09:50:15.797Z,2.00
2022-12-25T09:53:03.210Z,2.20
2022-12-25T09:55:34.141Z,2.53
2022-12-25T09:58:09.978Z,1.98
2022-12-25T10:03:45.359Z,1.88
2022-12-25T10:09:03.408Z,3.67
2022-12-25T10:11:49.489Z,1.77
2022-12-25T10:14:29.525Z,2.42
2022-12-25T10:17:00.549Z,2.08
2022-12-25T10:19:29.884Z,1.80
2022-12-25T10:22:01.829Z,2.70
2022-12-25T10:24:50.051Z,2.25
2022-12-25T10:30:22.803Z,2.47
2022-12-25T10:32:51.964Z,2.35
2022-12-25T10:35:23.564Z,1.50
2022-12-25T10:38:00.066Z,1.88
2022-12-25T10:41:00.128Z,2.13
2022-12-25T10:43:47.718Z,1.77
2022-12-25T10:46:17.316Z,1.83
2022-12-25T10:48:51.320Z,2.25
2022-12-25T10:51:37.228Z,2.00
2022-12-25T10:54:23.731Z,1.80
2022-12-25T10:56:55.617Z,1.63
2022-12-25T10:59:29.036Z,1.80
2022-12-25T11:02:25.039Z,2.05
2022-12-25T11:05:10.255Z,2.33
2022-12-25T11:07:51.105Z,1.73
2022-12-25T11:10:44.365Z,1.77
2022-12-25T11:13:29.391Z,1.67
2022-12-25T11:16:15.733Z,1.77
2022-12-25T11:18:49.779Z,1.77
2022-12-25T11:21:24.142Z,1.85
2022-12-25T11:24:05.802Z,2.00
2022-12-25T11:26:47.943Z,1.73
2022-12-25T11:29:49.871Z,1.45
2022-12-25T11:32:46.769Z,1.75
2022-12-25T11:35:18.422Z,2.03
2022-12-25T11:37:49.676Z,1.90
2022-12-25T11:40:49.860Z,1.73
2022-12-25T11:43:36.713Z,1.50
2022-12-25T11:46:22.785Z,1.58
2022-12-25T11:48:57.704Z,2.42
2022-12-25T11:51:31.094Z,1.30
2022-12-25T11:54:31.179Z,1.48
2022-12-25T11:57:18.679Z,1.88
2022-12-25T11:59:56.459Z,1.42
2022-12-25T12:02:37.069Z,1.70
2022-12-25T12:05:29.916Z,1.40
2022-12-25T12:08:01.401Z,1.67
2022-12-25T12:11:16.180Z,1.30
2022-12-25T12:14:02.040Z,1.98
2022-12-25T12:16:30.492Z,1.40
2022-12-25T12:18:58.557Z,2.05
2022-12-25T12:21:29.280Z,1.83
2022-12-25T12:24:10.132Z,1.70
2022-12-25T12:29:54.953Z,2.08
2022-12-25T12:32:45.214Z,2.22
2022-12-25T12:35:40.289Z,1.65
2022-12-25T12:38:27.714Z,1.20
2022-12-25T12:41:00.874Z,1.90
2022-12-25T12:43:47.340Z,1.65
2022-12-25T12:46:31.432Z,1.27
2022-12-25T12:49:22.055Z,2.35
2022-12-25T12:52:42.973Z,1.95
2022-12-25T12:55:15.277Z,2.08
2022-12-25T12:58:04.409Z,1.60
2022-12-25T13:00:49.361Z,1.65
2022-12-25T13:03:57.543Z,1.83
2022-12-25T13:06:40.035Z,1.75
2022-12-25T13:09:29.539Z,1.30
2022-12-25T13:11:57.817Z,1.23
2022-12-25T13:14:25.903Z,4.03
2022-12-25T13:16:55.014Z,2.22
2022-12-25T13:19:28.846Z,3.05
2022-12-25T13:21:59.660Z,2.40
2022-12-25T13:24:35.658Z,1.65
2022-12-25T13:27:25.387Z,1.83
2022-12-25T13:29:53.468Z,2.83
2022-12-25T13:32:28.825Z,0.85
2022-12-25T13:34:57.242Z,1.00
2022-12-25T13:37:27.960Z,0.90
2022-12-25T13:40:00.302Z,0.80
2022-12-25T13:42:32.048Z,0.88
2022-12-25T13:45:19.981Z,1.00
2022-12-25T13:47:54.661Z,1.02
2022-12-25T13:50:28.253Z,0.80
2022-12-25T13:52:58.282Z,0.93
2022-12-25T13:55:28.519Z,1.40
2022-12-25T14:00:53.537Z,1.02
2022-12-25T14:03:40.374Z,1.05
2022-12-25T14:09:15.864Z,0.63
2022-12-25T14:11:49.318Z,0.80
2022-12-25T14:14:23.728Z,0.68
2022-12-25T14:16:55.555Z,0.88
2022-12-25T14:19:32.328Z,0.70
2022-12-25T14:22:11.087Z,0.60
2022-12-25T14:24:40.800Z,0.98
2022-12-25T14:27:28.594Z,1.00
2022-12-25T14:29:59.422Z,0.90
2022-12-25T14:32:38.548Z,0.73
2022-12-25T14:35:06.990Z,1.10
2022-12-25T14:37:37.360Z,1.13
2022-12-25T14:40:18.539Z,1.00
2022-12-25T14:43:02.033Z,0.98
2022-12-25T14:45:31.726Z,1.27
2022-12-25T14:48:21.235Z,0.93
2022-12-25T14:51:17.864Z,0.52
2022-12-25T14:53:53.478Z,0.50
2022-12-25T14:56:23.718Z,0.50
2022-12-25T14:58:56.983Z,0.60
2022-12-25T15:01:39.293Z,0.70
2022-12-25T15:04:18.200Z,0.70
2022-12-25T15:06:59.649Z,0.40
2022-12-25T15:09:30.283Z,0.70
2022-12-25T15:11:58.389Z,0.70
2022-12-25T15:14:27.321Z,0.55
2022-12-25T15:16:58.505Z,0.75
2022-12-25T15:19:37.992Z,0.75
2022-12-25T15:22:07.270Z,0.50
2022-12-25T15:24:35.964Z,0.40
2022-12-25T15:27:05.771Z,0.60
2022-12-25T15:32:24.335Z,0.57
2022-12-25T15:34:53.302Z,1.15
2022-12-25T15:37:21.463Z,0.70
2022-12-25T15:39:49.591Z,0.60
2022-12-25T15:42:21.736Z,0.20
2022-12-25T15:44:50.499Z,0.68
2022-12-25T15:47:20.359Z,0.80
2022-12-25T15:49:49.246Z,0.60
2022-12-25T15:52:18.371Z,0.80
2022-12-25T15:54:46.506Z,1.15
2022-12-25T15:57:20.885Z,0.65
2022-12-25T15:59:49.092Z,0.75
2022-12-25T16:02:20.483Z,0.65
2022-12-25T16:05:10.456Z,0.82
2022-12-25T16:10:11.540Z,0.73
2022-12-25T16:12:39.570Z,0.60
2022-12-25T16:15:26.739Z,0.85
2022-12-25T16:17:54.853Z,0.77
2022-12-25T16:20:22.781Z,0.70
2022-12-25T16:22:50.820Z,0.82
2022-12-25T16:25:19.973Z,0.30
2022-12-25T16:27:48.380Z,0.20
2022-12-25T16:30:18.336Z,0.50
2022-12-25T16:32:49.843Z,0.30
2022-12-25T16:38:04.135Z,0.40
2022-12-25T16:40:32.463Z,0.20
2022-12-25T16:43:00.777Z,0.30
2022-12-25T16:45:28.871Z,0.10
2022-12-25T16:47:57.806Z,0.30
2022-12-25T16:50:25.983Z,0.10
2022-12-25T16:52:54.035Z,0.20
2022-12-25T16:55:27.818Z,0.13
2022-12-25T16:57:57.970Z,0.20
2022-12-25T17:00:26.733Z,0.17
2022-12-25T17:02:56.299Z,0.08
2022-12-25T17:05:25.162Z,0.17
2022-12-25T17:07:53.161Z,0.22
2022-12-25T17:10:21.581Z,0.30
2022-12-25T17:12:49.702Z,0.25
2022-12-25T17:15:17.876Z,0.20
2022-12-25T17:17:45.790Z,0.30
2022-12-25T17:20:32.789Z,0.25
2022-12-25T17:23:00.920Z,0.30
2022-12-25T17:25:29.088Z,0.32
2022-12-25T17:27:57.267Z,0.20
2022-12-25T17:30:25.412Z,0.10
2022-12-25T17:32:55.386Z,0.25
2022-12-25T17:35:24.723Z,0.30
2022-12-25T17:37:52.647Z,0.43
2022-12-25T17:40:20.737Z,0.22
2022-12-25T17:42:48.945Z,0.32
2022-12-25T17:45:17.881Z,0.40
2022-12-25T17:47:45.902Z,0.20
2022-12-25T17:50:37.372Z,0.50
2022-12-25T17:53:09.120Z,0.20
2022-12-25T17:55:41.584Z,0.40
2022-12-25T17:58:09.610Z,0.30
2022-12-25T18:00:37.882Z,0.38
2022-12-25T18:03:11.553Z,0.35
2022-12-25T18:05:40.219Z,0.30
2022-12-25T18:08:08.364Z,0.40
2022-12-25T18:10:41.153Z,0.52
2022-12-25T18:13:10.719Z,0.60
2022-12-25T18:15:40.192Z,0.50
2022-12-25T18:18:09.084Z,0.52
2022-12-25T18:20:40.203Z,0.80
2022-12-25T18:23:09.549Z,1.00
2022-12-25T18:25:41.929Z,0.40
2022-12-25T18:28:11.114Z,0.50
2022-12-25T18:30:41.010Z,0.43
2022-12-25T18:33:28.522Z,0.50
2022-12-25T18:36:01.797Z,0.50
2022-12-25T18:38:30.076Z,0.40
2022-12-25T18:41:17.293Z,0.47
2022-12-25T18:46:30.684Z,0.55
2022-12-25T18:48:58.739Z,0.60
2022-12-25T18:51:33.153Z,0.52
2022-12-25T18:54:04.913Z,0.60
2022-12-25T18:56:33.011Z,0.70
2022-12-25T18:59:01.067Z,0.82
2022-12-25T19:01:29.582Z,0.75
2022-12-25T19:04:04.611Z,0.52
2022-12-25T19:06:33.800Z,0.40
2022-12-25T19:09:09.405Z,0.85
2022-12-25T19:11:45.951Z,0.98
2022-12-25T19:14:15.857Z,0.70
2022-12-25T19:16:44.053Z,0.70
2022-12-25T19:19:12.376Z,0.77
2022-12-25T19:21:41.079Z,0.40
2022-12-25T19:24:27.913Z,0.43
2022-12-25T19:26:55.971Z,0.70
2022-12-25T19:29:24.233Z,0.57
2022-12-25T19:31:52.502Z,0.60
2022-12-25T19:34:22.177Z,0.65
2022-12-25T19:36:51.561Z,0.80
2022-12-25T19:39:19.940Z,0.80
2022-12-25T19:41:48.773Z,0.40
2022-12-25T19:44:16.880Z,0.40
2022-12-25T19:46:45.010Z,0.30
2022-12-25T19:49:14.166Z,0.43
2022-12-25T19:51:45.505Z,0.60
2022-12-25T19:54:16.158Z,0.80
2022-12-25T19:56:44.315Z,0.60
2022-12-25T19:59:14.901Z,0.45
2022-12-25T20:01:43.348Z,0.43
2022-12-25T20:04:11.630Z,0.30
2022-12-25T20:06:42.919Z,0.20
2022-12-25T20:09:20.717Z,0.10
2022-12-25T20:14:56.462Z,0.17
2022-12-25T20:17:24.582Z,0.10
2022-12-25T20:19:52.868Z,0.28
2022-12-25T20:22:21.086Z,0.17
2022-12-25T20:24:49.528Z,0.45
2022-12-25T20:27:17.548Z,0.32
2022-12-25T20:29:45.871Z,0.40
2022-12-25T20:32:14.569Z,0.28
2022-12-25T20:34:42.712Z,0.40
2022-12-25T20:37:10.900Z,0.40
2022-12-25T20:39:39.102Z,0.35
2022-12-25T20:42:08.227Z,0.40
2022-12-25T20:44:55.096Z,0.73
2022-12-25T20:47:23.316Z,0.20
2022-12-25T20:49:51.309Z,0.22
2022-12-25T20:52:19.465Z,0.20
2022-12-25T20:54:48.002Z,0.20
2022-12-25T20:57:16.050Z,0.30
2022-12-25T20:59:44.203Z,0.25
2022-12-25T21:02:35.097Z,0.22
2022-12-25T21:05:00.758Z,0.20
2022-12-25T21:07:28.877Z,0.10
2022-12-25T21:09:57.187Z,0.20
2022-12-25T21:12:25.849Z,0.17
2022-12-25T21:14:53.840Z,0.40
2022-12-25T21:17:21.989Z,0.30
2022-12-25T21:19:50.742Z,0.35
2022-12-25T21:22:18.832Z,0.43
2022-12-25T21:24:52.144Z,0.25
2022-12-25T21:27:20.373Z,0.30
2022-12-25T21:29:48.411Z,0.35
2022-12-25T21:32:42.608Z,0.20
2022-12-25T21:35:10.680Z,0.30
2022-12-25T21:37:38.670Z,0.40
2022-12-25T21:40:10.119Z,0.30
2022-12-25T21:42:42.595Z,0.30
2022-12-25T21:45:10.829Z,0.30
2022-12-25T21:48:00.269Z,0.60
2022-12-25T21:50:45.702Z,0.70
2022-12-25T21:53:18.530Z,0.40
2022-12-25T21:55:57.678Z,0.20
2022-12-25T22:01:12.099Z,0.32
2022-12-25T22:03:40.209Z,0.30
2022-12-25T22:06:26.854Z,0.10
2022-12-25T22:08:55.131Z,0.20
2022-12-25T22:11:45.591Z,0.50
2022-12-25T22:14:51.195Z,0.40
2022-12-25T22:17:45.597Z,0.35
2022-12-25T22:20:20.037Z,0.30
2022-12-25T22:22:48.594Z,0.25
2022-12-25T22:25:17.770Z,0.40
2022-12-25T22:27:47.011Z,0.45
2022-12-25T22:30:18.178Z,0.60
2022-12-25T22:33:04.887Z,0.60
2022-12-25T22:35:33.236Z,0.68
2022-12-25T22:38:19.655Z,0.60
2022-12-25T22:40:47.817Z,0.75
2022-12-25T22:43:15.908Z,0.70
2022-12-25T22:45:44.131Z,0.43
2022-12-25T22:48:12.374Z,0.73
2022-12-25T22:50:40.656Z,0.40
2022-12-25T22:53:08.761Z,0.60
2022-12-25T22:55:37.039Z,0.50
2022-12-25T22:58:05.684Z,0.43
2022-12-25T23:00:33.941Z,0.30
2022-12-25T23:03:02.277Z,0.40
2022-12-25T23:05:30.472Z,0.30
2022-12-25T23:07:58.717Z,0.30
2022-12-25T23:10:27.086Z,0.20
2022-12-25T23:13:18.424Z,0.30
2022-12-25T23:15:47.664Z,0.10
2022-12-25T23:18:34.484Z,0.30
2022-12-25T23:21:40.353Z,0.20
2022-12-25T23:24:28.458Z,0.20
2022-12-25T23:26:56.943Z,0.20
2022-12-25T23:29:37.753Z,0.10
2022-12-25T23:32:11.820Z,0.10
2022-12-25T23:34:41.861Z,0.20
2022-12-25T23:37:11.177Z,0.40
2022-12-25T23:39:41.710Z,0.10
2022-12-25T23:42:09.959Z,0.20
2022-12-25T23:44:38.439Z,0.00
2022-12-25T23:47:06.681Z,0.50
2022-12-25T23:52:38.485Z,0.13
2022-12-25T23:55:07.509Z,0.10
2022-12-25T23:57:35.725Z,0.05
